Terminal Aerodrome Forecast
Issued by NWS Atlanta, GA

Home | Current Version | Previous Version | Text Only | Print | Product List | Glossary On
Versions: 1 2 3 4 5 6 7 8 9 10 11 12 13 14 15 16 17
163
FTUS42 KFFC 291735
TAFCSG
TAF
KCSG 291735Z 2918/3018 27005KT P6SM SCT040
     FM292100 24006KT P6SM VCSH BKN050
     FM300100 21004KT P6SM SCT050
     FM300300 19004KT P6SM FEW200
     FM301500 17007KT P6SM FEW250
     FM301700 19010G15KT P6SM SCT040=

USA.gov is the U.S. government's official web portal to all federal, state and local government web resources and services.